Estación Meteorológica Peña el Pijo (Robertgarden) [ 09/25/17 15:11:41 CEST ]

Fecha Hora Presion(HPa) Temp (°C) Humedad % Rocio (°C) Viento ( m/s) Direccion Lluvia 1Hora(mm) Lluvia 24H(mm) LLuvia Total(mm)
2017-May-23 01:01:39 1010.700 12.4 64 5.8         1390.83
2017-May-23 02:01:50 1010.900 11.5 67 5.6         1390.83
2017-May-23 03:02:02 1010.500 10.9 69 5.5         1390.83
2017-May-23 04:02:23 1010.400 9.8 71 4.8         1390.83
2017-May-23 05:03:35 1010.300 8.9 74 4.5         1390.83
2017-May-23 06:02:20 1010.500 7.8 76 3.8         1390.83
2017-May-23 07:01:50 1010.800 7.1 78 3.5         1390.83
2017-May-23 08:01:53 1011.400 9.6 81 6.5         1390.83
2017-May-23 09:01:38 1011.500 15.4 61 7.9         1390.83
2017-May-23 10:01:48 1011.500 21.5 45 9.0         1390.83
2017-May-23 11:01:41 1011.700 25.3 35 8.6         1390.83
2017-May-23 12:01:40 1012.000 28.1 29 8.3 0.8 SE     1390.83
2017-May-23 13:02:00 1011.800 29.2 22 5.1         1390.83
2017-May-23 14:01:49 1012.000 27.1 24 4.6         1390.83
2017-May-23 15:01:39 1011.900 27.5 26 6.1         1390.83
2017-May-23 16:01:53 1011.600 27.9 24 5.2         1390.83
2017-May-23 17:01:44 1011.100 28.2 25 6.1 1.8 S     1390.83
2017-May-23 18:01:30 1011.300 27.2 28 7.0 2.2 WNW     1390.83
2017-May-23 19:01:38 1010.900 25.9 31 7.4         1390.83
2017-May-23 20:01:37 1011.500 23.5 33 6.2         1390.83
2017-May-23 21:02:01 1012.200 20.3 32 3.0         1390.83
2017-May-23 22:01:32 1012.600 17.0 39 2.9         1390.83
2017-May-23 23:01:48 1013.100 16.8 43 4.1         1390.83

Temperatura Máxima:29°    Temperatura Mínima:
Presión Máxima:1013.100 Hpa    Presión Mínima:1010.300 Hpa


Volver